Mayville, New York
Current Conditions -  °F | °C
As of 1:35 PM on Wednesday 26 Nov 2014 (Local Time) from KJHW Reporting Station
Overcast Overcast  
Wind Chill: 22°   Ceiling: 500
Heat Index: 28°   Visibility: 0.75mi
Dew Point: 27°   Wind: 6mph
Humidity: 93%   Direction: 50°NE
Pressure: 30.03"   Gusts: NA
Location:  42.25°N, 79.5°W
Report Text: KJHW 261835Z 05005KT 3/4SM OVC005 M02/M03 A3003 RMK AO1
Loading
Personal Weather Stations






























Interactive Weather Map New forecast layout! Learn more

10-Day Weather Forecast

Advertisements
Track Severe Weather on mobile